sensor_id;sensor_type;location;lat;lon;timestamp;pressure;altitude;pressure_sealevel;temperature;humidity
49102;BME280;34913;47.520;19.186;2023-02-20T00:00:04;100580.59;;;4.71;60.79
49102;BME280;34913;47.520;19.186;2023-02-20T00:02:29;100585.53;;;4.60;58.94
49102;BME280;34913;47.520;19.186;2023-02-20T00:04:56;100575.59;;;4.48;59.55
49102;BME280;34913;47.520;19.186;2023-02-20T00:07:21;100579.50;;;4.58;59.71
49102;BME280;34913;47.520;19.186;2023-02-20T00:09:46;100585.53;;;4.60;59.46
49102;BME280;34913;47.520;19.186;2023-02-20T00:12:12;100584.44;;;4.64;62.33
49102;BME280;34913;47.520;19.186;2023-02-20T00:14:37;100586.50;;;4.58;58.86
49102;BME280;34913;47.520;19.186;2023-02-20T00:17:02;100582.25;;;4.74;58.98
49102;BME280;34913;47.520;19.186;2023-02-20T00:19:28;100585.56;;;4.78;61.65
49102;BME280;34913;47.520;19.186;2023-02-20T00:21:53;100592.22;;;4.85;58.56
49102;BME280;34913;47.520;19.186;2023-02-20T00:24:18;100588.81;;;4.83;58.06
49102;BME280;34913;47.520;19.186;2023-02-20T00:26:47;100601.25;;;4.79;57.83
49102;BME280;34913;47.520;19.186;2023-02-20T00:29:14;100603.88;;;4.79;58.43
49102;BME280;34913;47.520;19.186;2023-02-20T00:31:39;100611.56;;;4.84;58.05
49102;BME280;34913;47.520;19.186;2023-02-20T00:34:04;100612.13;;;4.71;58.57
49102;BME280;34913;47.520;19.186;2023-02-20T00:36:29;100614.44;;;4.60;58.55
49102;BME280;34913;47.520;19.186;2023-02-20T00:38:55;100618.38;;;4.52;59.22
49102;BME280;34913;47.520;19.186;2023-02-20T00:41:20;100627.25;;;4.49;62.25
49102;BME280;34913;47.520;19.186;2023-02-20T00:43:46;100624.06;;;4.24;58.49
49102;BME280;34913;47.520;19.186;2023-02-20T00:46:11;100621.34;;;4.25;61.17
49102;BME280;34913;47.520;19.186;2023-02-20T00:48:37;100627.41;;;4.27;61.67
49102;BME280;34913;47.520;19.186;2023-02-20T00:51:02;100623.97;;;4.25;59.57
49102;BME280;34913;47.520;19.186;2023-02-20T00:53:27;100608.19;;;4.27;59.79
49102;BME280;34913;47.520;19.186;2023-02-20T00:55:52;100613.75;;;4.38;61.33
49102;BME280;34913;47.520;19.186;2023-02-20T00:58:18;100619.09;;;4.36;60.40
49102;BME280;34913;47.520;19.186;2023-02-20T01:00:43;100610.94;;;4.42;59.62
49102;BME280;34913;47.520;19.186;2023-02-20T01:03:08;100609.91;;;4.45;59.59
49102;BME280;34913;47.520;19.186;2023-02-20T01:05:33;100608.22;;;4.44;60.01
49102;BME280;34913;47.520;19.186;2023-02-20T01:07:59;100615.59;;;4.55;57.97
49102;BME280;34913;47.520;19.186;2023-02-20T01:10:24;100613.13;;;4.52;58.19
49102;BME280;34913;47.520;19.186;2023-02-20T01:12:49;100611.81;;;4.41;57.97
49102;BME280;34913;47.520;19.186;2023-02-20T01:15:15;100609.50;;;4.35;58.42
49102;BME280;34913;47.520;19.186;2023-02-20T01:17:40;100611.13;;;4.38;58.65
49102;BME280;34913;47.520;19.186;2023-02-20T01:20:07;100611.22;;;4.36;58.39
49102;BME280;34913;47.520;19.186;2023-02-20T01:22:32;100616.19;;;4.42;59.93
49102;BME280;34913;47.520;19.186;2023-02-20T01:24:58;100619.66;;;4.43;58.57
49102;BME280;34913;47.520;19.186;2023-02-20T01:27:23;100618.09;;;4.39;58.88
49102;BME280;34913;47.520;19.186;2023-02-20T01:29:48;100620.66;;;4.40;58.67
49102;BME280;34913;47.520;19.186;2023-02-20T01:32:13;100631.03;;;4.43;59.06
49102;BME280;34913;47.520;19.186;2023-02-20T01:34:39;100637.13;;;4.44;57.53
49102;BME280;34913;47.520;19.186;2023-02-20T01:37:04;100639.75;;;4.44;58.82
49102;BME280;34913;47.520;19.186;2023-02-20T01:39:29;100647.78;;;4.41;58.63
49102;BME280;34913;47.520;19.186;2023-02-20T01:42:02;100653.38;;;4.33;58.35
49102;BME280;34913;47.520;19.186;2023-02-20T01:44:30;100657.88;;;4.31;59.54
49102;BME280;34913;47.520;19.186;2023-02-20T01:46:56;100654.03;;;4.38;59.18
49102;BME280;34913;47.520;19.186;2023-02-20T01:49:24;100653.19;;;4.38;59.66
49102;BME280;34913;47.520;19.186;2023-02-20T01:51:52;100654.81;;;4.40;58.98
49102;BME280;34913;47.520;19.186;2023-02-20T01:54:20;100661.16;;;4.36;59.35
49102;BME280;34913;47.520;19.186;2023-02-20T01:56:48;100666.75;;;4.29;58.55
49102;BME280;34913;47.520;19.186;2023-02-20T01:59:13;100670.00;;;4.34;57.97
49102;BME280;34913;47.520;19.186;2023-02-20T02:01:39;100667.03;;;4.23;59.01
49102;BME280;34913;47.520;19.186;2023-02-20T02:04:05;100659.06;;;4.24;58.87
49102;BME280;34913;47.520;19.186;2023-02-20T02:06:32;100663.69;;;4.19;59.62
49102;BME280;34913;47.520;19.186;2023-02-20T02:08:59;100650.97;;;4.10;60.63
49102;BME280;34913;47.520;19.186;2023-02-20T02:11:27;100648.06;;;4.16;60.94
49102;BME280;34913;47.520;19.186;2023-02-20T02:13:53;100643.38;;;4.23;60.42
49102;BME280;34913;47.520;19.186;2023-02-20T02:26:40;100670.94;;;4.14;61.66
49102;BME280;34913;47.520;19.186;2023-02-20T02:29:11;100669.16;;;4.14;62.23
49102;BME280;34913;47.520;19.186;2023-02-20T02:47:34;100701.28;;;4.01;64.91
49102;BME280;34913;47.520;19.186;2023-02-20T02:50:03;100698.38;;;3.88;65.81
49102;BME280;34913;47.520;19.186;2023-02-20T02:52:29;100693.50;;;3.79;66.49
49102;BME280;34913;47.520;19.186;2023-02-20T02:55:15;100698.75;;;3.58;67.51
49102;BME280;34913;47.520;19.186;2023-02-20T02:57:40;100704.59;;;3.65;67.85
49102;BME280;34913;47.520;19.186;2023-02-20T03:02:32;100715.63;;;3.73;68.22
49102;BME280;34913;47.520;19.186;2023-02-20T03:04:59;100712.09;;;3.74;67.99
49102;BME280;34913;47.520;19.186;2023-02-20T03:07:28;100712.41;;;3.67;68.63
49102;BME280;34913;47.520;19.186;2023-02-20T03:09:56;100702.94;;;3.62;69.44
49102;BME280;34913;47.520;19.186;2023-02-20T03:12:24;100708.78;;;3.69;68.88
49102;BME280;34913;47.520;19.186;2023-02-20T03:14:53;100702.94;;;3.62;69.97
49102;BME280;34913;47.520;19.186;2023-02-20T03:17:40;100705.13;;;3.53;71.61
49102;BME280;34913;47.520;19.186;2023-02-20T03:20:08;100707.75;;;3.53;70.73
49102;BME280;34913;47.520;19.186;2023-02-20T03:22:45;100710.44;;;3.51;70.60
49102;BME280;34913;47.520;19.186;2023-02-20T03:25:22;100712.22;;;3.51;71.05
49102;BME280;34913;47.520;19.186;2023-02-20T03:30:33;100700.72;;;3.53;71.48
49102;BME280;34913;47.520;19.186;2023-02-20T03:33:48;100696.13;;;3.58;71.41
49102;BME280;34913;47.520;19.186;2023-02-20T03:36:06;100695.53;;;3.52;71.63
49102;BME280;34913;47.520;19.186;2023-02-20T03:38:54;100697.56;;;3.45;72.33
49102;BME280;34913;47.520;19.186;2023-02-20T03:41:39;100696.53;;;3.49;72.43
49102;BME280;34913;47.520;19.186;2023-02-20T03:44:24;100703.19;;;3.36;72.96
49102;BME280;34913;47.520;19.186;2023-02-20T03:46:50;100717.84;;;3.42;73.33
49102;BME280;34913;47.520;19.186;2023-02-20T03:49:20;100720.22;;;3.48;73.16
49102;BME280;34913;47.520;19.186;2023-02-20T03:51:48;100726.97;;;3.53;72.29
49102;BME280;34913;47.520;19.186;2023-02-20T03:54:14;100725.94;;;3.57;71.69
49102;BME280;34913;47.520;19.186;2023-02-20T03:56:40;100726.53;;;3.64;72.50
49102;BME280;34913;47.520;19.186;2023-02-20T03:59:13;100731.50;;;3.70;71.92
49102;BME280;34913;47.520;19.186;2023-02-20T04:01:40;100723.28;;;3.78;71.15
49102;BME280;34913;47.520;19.186;2023-02-20T04:04:06;100726.22;;;3.72;71.36
49102;BME280;34913;47.520;19.186;2023-02-20T04:06:36;100721.22;;;3.66;71.40
49102;BME280;34913;47.520;19.186;2023-02-20T04:09:05;100721.13;;;3.67;71.54
49102;BME280;34913;47.520;19.186;2023-02-20T04:13:56;100712.47;;;3.65;71.29
49102;BME280;34913;47.520;19.186;2023-02-20T04:16:22;100709.50;;;3.52;71.52
49102;BME280;34913;47.520;19.186;2023-02-20T04:18:48;100710.97;;;3.59;71.61
49102;BME280;34913;47.520;19.186;2023-02-20T04:21:21;100712.13;;;3.52;71.02
49102;BME280;34913;47.520;19.186;2023-02-20T04:23:49;100717.31;;;3.54;72.06
49102;BME280;34913;47.520;19.186;2023-02-20T04:26:17;100721.78;;;3.52;71.02
49102;BME280;34913;47.520;19.186;2023-02-20T04:28:43;100723.50;;;3.53;71.53
49102;BME280;34913;47.520;19.186;2023-02-20T04:31:12;100715.44;;;3.57;71.58
49102;BME280;34913;47.520;19.186;2023-02-20T04:33:39;100717.00;;;3.61;70.92
49102;BME280;34913;47.520;19.186;2023-02-20T04:36:04;100718.75;;;3.61;71.59
49102;BME280;34913;47.520;19.186;2023-02-20T04:38:30;100713.41;;;3.64;70.72
49102;BME280;34913;47.520;19.186;2023-02-20T04:40:55;100715.88;;;3.67;70.52
49102;BME280;34913;47.520;19.186;2023-02-20T04:43:20;100720.06;;;3.71;71.37
49102;BME280;34913;47.520;19.186;2023-02-20T04:45:45;100721.66;;;3.75;71.31
49102;BME280;34913;47.520;19.186;2023-02-20T04:48:11;100716.00;;;3.84;69.91
49102;BME280;34913;47.520;19.186;2023-02-20T04:50:36;100697.69;;;3.83;69.63
49102;BME280;34913;47.520;19.186;2023-02-20T04:53:01;100702.03;;;3.84;69.13
49102;BME280;34913;47.520;19.186;2023-02-20T04:55:27;100700.91;;;3.89;68.83
49102;BME280;34913;47.520;19.186;2023-02-20T04:57:53;100701.25;;;3.82;69.10
49102;BME280;34913;47.520;19.186;2023-02-20T05:00:20;100700.19;;;3.86;70.45
49102;BME280;34913;47.520;19.186;2023-02-20T05:02:46;100714.31;;;3.83;69.56
49102;BME280;34913;47.520;19.186;2023-02-20T05:05:16;100709.53;;;3.73;69.71
49102;BME280;34913;47.520;19.186;2023-02-20T05:07:42;100711.94;;;3.77;69.95
49102;BME280;34913;47.520;19.186;2023-02-20T05:10:07;100714.72;;;3.74;69.36
49102;BME280;34913;47.520;19.186;2023-02-20T05:12:33;100715.72;;;3.72;69.64
49102;BME280;34913;47.520;19.186;2023-02-20T05:14:58;100718.97;;;3.77;71.48
49102;BME280;34913;47.520;19.186;2023-02-20T05:17:23;100708.47;;;3.77;70.62
49102;BME280;34913;47.520;19.186;2023-02-20T05:19:48;100718.84;;;3.80;69.21
49102;BME280;34913;47.520;19.186;2023-02-20T05:22:14;100707.50;;;3.79;69.21
49102;BME280;34913;47.520;19.186;2023-02-20T05:24:46;100713.47;;;3.83;69.97
49102;BME280;34913;47.520;19.186;2023-02-20T05:27:12;100707.53;;;3.78;70.12
49102;BME280;34913;47.520;19.186;2023-02-20T05:30:00;100722.34;;;3.80;70.86
49102;BME280;34913;47.520;19.186;2023-02-20T05:32:25;100717.63;;;3.87;69.83
49102;BME280;34913;47.520;19.186;2023-02-20T05:34:51;100713.66;;;3.99;69.64
49102;BME280;34913;47.520;19.186;2023-02-20T05:37:16;100726.84;;;3.97;69.78
49102;BME280;34913;47.520;19.186;2023-02-20T05:39:42;100729.59;;;3.94;70.04
49102;BME280;34913;47.520;19.186;2023-02-20T05:42:08;100732.19;;;3.96;69.10
49102;BME280;34913;47.520;19.186;2023-02-20T05:44:33;100731.09;;;4.00;69.77
49102;BME280;34913;47.520;19.186;2023-02-20T05:46:59;100744.81;;;3.86;70.07
49102;BME280;34913;47.520;19.186;2023-02-20T05:49:24;100738.28;;;3.96;69.77
49102;BME280;34913;47.520;19.186;2023-02-20T05:51:50;100742.06;;;4.09;68.75
49102;BME280;34913;47.520;19.186;2023-02-20T05:54:18;100752.44;;;4.12;68.60
49102;BME280;34913;47.520;19.186;2023-02-20T05:56:44;100751.13;;;4.02;69.05
49102;BME280;34913;47.520;19.186;2023-02-20T05:59:10;100756.59;;;3.98;69.61
49102;BME280;34913;47.520;19.186;2023-02-20T06:01:35;100757.09;;;4.06;68.84
49102;BME280;34913;47.520;19.186;2023-02-20T06:04:00;100756.19;;;4.07;69.30
49102;BME280;34913;47.520;19.186;2023-02-20T06:06:32;100759.47;;;4.12;68.47
49102;BME280;34913;47.520;19.186;2023-02-20T06:08:58;100759.47;;;4.12;68.68
49102;BME280;34913;47.520;19.186;2023-02-20T06:11:23;100765.78;;;4.08;69.01
49102;BME280;34913;47.520;19.186;2023-02-20T06:13:49;100772.66;;;4.10;68.92
49102;BME280;34913;47.520;19.186;2023-02-20T06:16:20;100777.88;;;4.12;69.48
49102;BME280;34913;47.520;19.186;2023-02-20T06:18:45;100774.94;;;4.18;69.40
49102;BME280;34913;47.520;19.186;2023-02-20T06:21:10;100770.28;;;4.25;68.93
49102;BME280;34913;47.520;19.186;2023-02-20T06:23:36;100775.97;;;4.34;68.70
49102;BME280;34913;47.520;19.186;2023-02-20T06:26:02;100779.53;;;4.33;68.64
49102;BME280;34913;47.520;19.186;2023-02-20T06:28:28;100766.53;;;4.30;68.74
49102;BME280;34913;47.520;19.186;2023-02-20T06:30:53;100766.63;;;4.29;68.74
49102;BME280;34913;47.520;19.186;2023-02-20T06:33:19;100772.06;;;4.24;69.47
49102;BME280;34913;47.520;19.186;2023-02-20T06:35:44;100777.38;;;4.23;69.89
49102;BME280;34913;47.520;19.186;2023-02-20T06:38:09;100780.59;;;4.29;70.34
49102;BME280;34913;47.520;19.186;2023-02-20T06:40:35;100781.66;;;4.25;69.81
49102;BME280;34913;47.520;19.186;2023-02-20T06:43:00;100777.19;;;4.27;69.02
49102;BME280;34913;47.520;19.186;2023-02-20T06:45:25;100787.38;;;4.35;68.82
49102;BME280;34913;47.520;19.186;2023-02-20T06:47:51;100785.19;;;4.44;68.88
49102;BME280;34913;47.520;19.186;2023-02-20T06:50:16;100784.84;;;4.52;68.93
49102;BME280;34913;47.520;19.186;2023-02-20T06:52:41;100774.41;;;4.51;67.87
49102;BME280;34913;47.520;19.186;2023-02-20T06:55:06;100774.25;;;4.54;67.99
49102;BME280;34913;47.520;19.186;2023-02-20T06:57:32;100777.47;;;4.60;68.24
49102;BME280;34913;47.520;19.186;2023-02-20T06:59:57;100775.44;;;4.65;67.91
49102;BME280;34913;47.520;19.186;2023-02-20T07:02:22;100778.03;;;4.86;67.13
49102;BME280;34913;47.520;19.186;2023-02-20T07:04:48;100785.41;;;4.78;68.35
49102;BME280;34913;47.520;19.186;2023-02-20T07:07:13;100771.56;;;4.74;68.20
49102;BME280;34913;47.520;19.186;2023-02-20T07:09:39;100786.38;;;4.56;67.35
49102;BME280;34913;47.520;19.186;2023-02-20T07:12:04;100782.13;;;4.54;68.56
49102;BME280;34913;47.520;19.186;2023-02-20T07:14:29;100774.31;;;4.52;68.96
49102;BME280;34913;47.520;19.186;2023-02-20T07:16:55;100767.91;;;4.58;68.24
49102;BME280;34913;47.520;19.186;2023-02-20T07:19:20;100764.31;;;4.60;67.90
49102;BME280;34913;47.520;19.186;2023-02-20T07:21:45;100767.72;;;4.62;68.37
49102;BME280;34913;47.520;19.186;2023-02-20T07:24:11;100768.28;;;4.69;67.21
49102;BME280;34913;47.520;19.186;2023-02-20T07:26:36;100766.59;;;4.87;67.36
49102;BME280;34913;47.520;19.186;2023-02-20T07:29:04;100770.72;;;4.92;67.78
49102;BME280;34913;47.520;19.186;2023-02-20T07:31:29;100771.06;;;4.85;67.84
49102;BME280;34913;47.520;19.186;2023-02-20T07:33:56;100781.16;;;4.94;67.94
49102;BME280;34913;47.520;19.186;2023-02-20T07:36:21;100777.19;;;4.85;69.62
49102;BME280;34913;47.520;19.186;2023-02-20T07:38:57;100783.13;;;4.89;68.75
49102;BME280;34913;47.520;19.186;2023-02-20T07:41:23;100785.22;;;5.01;68.71
49102;BME280;34913;47.520;19.186;2023-02-20T07:43:48;100777.41;;;4.99;69.07
49102;BME280;34913;47.520;19.186;2023-02-20T07:46:14;100779.22;;;5.16;67.66
49102;BME280;34913;47.520;19.186;2023-02-20T07:48:39;100782.69;;;5.17;67.28
49102;BME280;34913;47.520;19.186;2023-02-20T07:51:04;100781.25;;;5.28;67.09
49102;BME280;34913;47.520;19.186;2023-02-20T07:53:30;100787.63;;;5.42;65.67
49102;BME280;34913;47.520;19.186;2023-02-20T07:55:55;100778.81;;;5.43;66.27
49102;BME280;34913;47.520;19.186;2023-02-20T07:58:20;100776.91;;;5.46;67.19
49102;BME280;34913;47.520;19.186;2023-02-20T08:00:45;100771.44;;;5.32;66.80
49102;BME280;34913;47.520;19.186;2023-02-20T08:03:11;100781.84;;;5.52;67.29
49102;BME280;34913;47.520;19.186;2023-02-20T08:05:36;100780.56;;;5.61;65.75
49102;BME280;34913;47.520;19.186;2023-02-20T08:08:01;100783.31;;;5.58;67.48
49102;BME280;34913;47.520;19.186;2023-02-20T08:10:27;100783.50;;;5.72;66.46
49102;BME280;34913;47.520;19.186;2023-02-20T08:12:53;100784.44;;;5.71;67.73
49102;BME280;34913;47.520;19.186;2023-02-20T08:15:18;100774.03;;;5.68;66.80
49102;BME280;34913;47.520;19.186;2023-02-20T08:17:44;100776.59;;;5.70;67.08
49102;BME280;34913;47.520;19.186;2023-02-20T08:20:10;100768.84;;;5.67;67.70
49102;BME280;34913;47.520;19.186;2023-02-20T08:22:36;100780.22;;;5.67;68.01
49102;BME280;34913;47.520;19.186;2023-02-20T08:25:01;100777.59;;;5.67;69.45
49102;BME280;34913;47.520;19.186;2023-02-20T08:27:28;100773.81;;;5.73;68.87
49102;BME280;34913;47.520;19.186;2023-02-20T08:29:53;100777.31;;;5.91;68.67
49102;BME280;34913;47.520;19.186;2023-02-20T08:32:19;100776.22;;;6.12;68.62
49102;BME280;34913;47.520;19.186;2023-02-20T08:34:44;100777.44;;;6.22;68.74
49102;BME280;34913;47.520;19.186;2023-02-20T08:37:09;100768.78;;;6.20;68.36
49102;BME280;34913;47.520;19.186;2023-02-20T08:39:35;100761.75;;;6.36;68.11
49102;BME280;34913;47.520;19.186;2023-02-20T08:42:00;100761.19;;;6.47;67.15
49102;BME280;34913;47.520;19.186;2023-02-20T08:44:26;100756.66;;;6.33;67.14
49102;BME280;34913;47.520;19.186;2023-02-20T08:46:51;100751.47;;;6.48;68.09
49102;BME280;34913;47.520;19.186;2023-02-20T08:49:16;100749.91;;;6.61;67.54
49102;BME280;34913;47.520;19.186;2023-02-20T08:51:51;100744.81;;;6.74;67.53
49102;BME280;34913;47.520;19.186;2023-02-20T08:54:16;100744.81;;;6.89;66.44
49102;BME280;34913;47.520;19.186;2023-02-20T08:56:41;100740.31;;;6.91;67.76
49102;BME280;34913;47.520;19.186;2023-02-20T08:59:07;100736.47;;;6.97;67.26
49102;BME280;34913;47.520;19.186;2023-02-20T09:01:32;100744.50;;;7.11;67.01
49102;BME280;34913;47.520;19.186;2023-02-20T09:03:57;100744.97;;;7.18;66.57
49102;BME280;34913;47.520;19.186;2023-02-20T09:06:23;100740.81;;;7.14;67.22
49102;BME280;34913;47.520;19.186;2023-02-20T09:08:50;100742.00;;;6.92;67.99
49102;BME280;34913;47.520;19.186;2023-02-20T09:11:15;100742.28;;;6.88;67.83
49102;BME280;34913;47.520;19.186;2023-02-20T09:13:44;100739.53;;;7.05;68.06
49102;BME280;34913;47.520;19.186;2023-02-20T09:16:13;100726.47;;;7.18;67.42
49102;BME280;34913;47.520;19.186;2023-02-20T09:18:39;100719.25;;;7.21;67.68
49102;BME280;34913;47.520;19.186;2023-02-20T09:21:07;100719.22;;;7.37;68.04
49102;BME280;34913;47.520;19.186;2023-02-20T09:23:32;100720.78;;;7.55;68.77
49102;BME280;34913;47.520;19.186;2023-02-20T09:25:58;100721.84;;;7.53;68.07
49102;BME280;34913;47.520;19.186;2023-02-20T09:28:23;100720.44;;;7.62;67.18
49102;BME280;34913;47.520;19.186;2023-02-20T09:30:48;100707.41;;;7.59;68.63
49102;BME280;34913;47.520;19.186;2023-02-20T09:33:13;100707.94;;;7.49;68.32
49102;BME280;34913;47.520;19.186;2023-02-20T09:35:39;100710.00;;;7.44;69.26
49102;BME280;34913;47.520;19.186;2023-02-20T09:38:04;100710.16;;;7.41;69.26
49102;BME280;34913;47.520;19.186;2023-02-20T09:40:31;100706.53;;;7.44;70.33
49102;BME280;34913;47.520;19.186;2023-02-20T09:43:04;100707.22;;;7.32;69.53
49102;BME280;34913;47.520;19.186;2023-02-20T09:45:37;100710.22;;;7.25;69.56
49102;BME280;34913;47.520;19.186;2023-02-20T09:50:38;100703.03;;;7.43;69.44
49102;BME280;34913;47.520;19.186;2023-02-20T09:55:50;100692.81;;;7.67;68.94
49102;BME280;34913;47.520;19.186;2023-02-20T09:58:25;100688.84;;;7.60;69.52
49102;BME280;34913;47.520;19.186;2023-02-20T10:00:51;100677.50;;;7.72;69.23
49102;BME280;34913;47.520;19.186;2023-02-20T10:03:19;100680.38;;;7.83;69.13
49102;BME280;34913;47.520;19.186;2023-02-20T10:05:46;100681.03;;;7.87;69.24
49102;BME280;34913;47.520;19.186;2023-02-20T10:08:13;100675.88;;;8.14;67.63
49102;BME280;34913;47.520;19.186;2023-02-20T10:10:40;100673.88;;;8.18;68.52
49102;BME280;34913;47.520;19.186;2023-02-20T10:25:55;100678.97;;;8.63;70.46
49102;BME280;34913;47.520;19.186;2023-02-20T10:28:22;100661.47;;;8.61;70.34
49102;BME280;34913;47.520;19.186;2023-02-20T10:38:52;100636.59;;;8.78;68.82
49102;BME280;34913;47.520;19.186;2023-02-20T10:41:24;100633.88;;;8.92;69.57
49102;BME280;34913;47.520;19.186;2023-02-20T10:44:00;100633.97;;;8.90;69.68
49102;BME280;34913;47.520;19.186;2023-02-20T10:48:55;100618.59;;;8.83;70.48
49102;BME280;34913;47.520;19.186;2023-02-20T10:51:37;100616.91;;;8.82;69.58
49102;BME280;34913;47.520;19.186;2023-02-20T10:54:05;100623.50;;;8.89;69.73
49102;BME280;34913;47.520;19.186;2023-02-20T10:56:34;100600.28;;;8.92;69.84
49102;BME280;34913;47.520;19.186;2023-02-20T10:59:22;100590.31;;;8.83;69.60
49102;BME280;34913;47.520;19.186;2023-02-20T11:01:51;100587.31;;;9.02;68.93
49102;BME280;34913;47.520;19.186;2023-02-20T11:04:19;100584.78;;;9.13;68.50
49102;BME280;34913;47.520;19.186;2023-02-20T11:06:47;100584.94;;;9.25;69.43
49102;BME280;34913;47.520;19.186;2023-02-20T11:09:14;100579.44;;;9.40;69.73
49102;BME280;34913;47.520;19.186;2023-02-20T11:11:40;100565.13;;;9.68;68.14
49102;BME280;34913;47.520;19.186;2023-02-20T11:14:20;100567.88;;;9.79;66.97
49102;BME280;34913;47.520;19.186;2023-02-20T11:21:58;100541.06;;;10.21;67.06
49102;BME280;34913;47.520;19.186;2023-02-20T11:24:28;100528.84;;;10.55;65.08
49102;BME280;34913;47.520;19.186;2023-02-20T11:29:26;100519.44;;;10.97;62.14
49102;BME280;34913;47.520;19.186;2023-02-20T11:31:54;100531.75;;;11.22;61.55
49102;BME280;34913;47.520;19.186;2023-02-20T11:34:20;100510.56;;;11.21;61.76
49102;BME280;34913;47.520;19.186;2023-02-20T12:03:10;100468.75;;;12.12;57.96
49102;BME280;34913;47.520;19.186;2023-02-20T12:05:42;100467.34;;;11.97;58.63
49102;BME280;34913;47.520;19.186;2023-02-20T12:11:10;100466.53;;;12.28;58.36
49102;BME280;34913;47.520;19.186;2023-02-20T12:13:43;100443.50;;;12.39;57.14
49102;BME280;34913;47.520;19.186;2023-02-20T12:27:41;100418.63;;;12.28;55.99
49102;BME280;34913;47.520;19.186;2023-02-20T12:30:25;100422.19;;;12.39;57.93
49102;BME280;34913;47.520;19.186;2023-02-20T12:35:30;100416.50;;;12.43;56.68
49102;BME280;34913;47.520;19.186;2023-02-20T12:51:42;100395.59;;;12.60;55.64
49102;BME280;34913;47.520;19.186;2023-02-20T12:54:41;100392.44;;;12.66;55.58
49102;BME280;34913;47.520;19.186;2023-02-20T12:57:20;100388.28;;;12.73;55.06
49102;BME280;34913;47.520;19.186;2023-02-20T12:59:58;100379.25;;;12.95;54.46
49102;BME280;34913;47.520;19.186;2023-02-20T13:02:45;100388.47;;;13.11;54.82
49102;BME280;34913;47.520;19.186;2023-02-20T13:05:14;100378.91;;;13.09;55.23
49102;BME280;34913;47.520;19.186;2023-02-20T13:07:46;100381.53;;;12.99;54.48
49102;BME280;34913;47.520;19.186;2023-02-20T13:10:21;100376.16;;;12.90;54.92
49102;BME280;34913;47.520;19.186;2023-02-20T13:12:48;100378.31;;;12.75;54.33
49102;BME280;34913;47.520;19.186;2023-02-20T13:17:53;100382.91;;;12.31;57.36
49102;BME280;34913;47.520;19.186;2023-02-20T13:20:46;100378.31;;;12.33;57.38
49102;BME280;34913;47.520;19.186;2023-02-20T13:25:45;100365.25;;;12.30;57.89
49102;BME280;34913;47.520;19.186;2023-02-20T13:31:05;100362.25;;;12.23;57.15
49102;BME280;34913;47.520;19.186;2023-02-20T13:33:31;100351.31;;;12.38;57.61
49102;BME280;34913;47.520;19.186;2023-02-20T13:35:57;100351.09;;;12.29;58.66
49102;BME280;34913;47.520;19.186;2023-02-20T13:38:25;100346.75;;;12.28;57.83
49102;BME280;34913;47.520;19.186;2023-02-20T13:53:41;100356.44;;;12.50;57.37
49102;BME280;34913;47.520;19.186;2023-02-20T13:59:10;100334.16;;;12.51;54.84
49102;BME280;34913;47.520;19.186;2023-02-20T14:01:52;100323.91;;;12.47;55.86
49102;BME280;34913;47.520;19.186;2023-02-20T14:04:20;100315.22;;;12.45;54.91
49102;BME280;34913;47.520;19.186;2023-02-20T14:06:51;100310.84;;;12.44;55.70
49102;BME280;34913;47.520;19.186;2023-02-20T14:09:21;100317.94;;;12.34;55.38
49102;BME280;34913;47.520;19.186;2023-02-20T14:11:49;100326.72;;;12.24;55.60
49102;BME280;34913;47.520;19.186;2023-02-20T14:17:13;100323.72;;;12.18;56.28
49102;BME280;34913;47.520;19.186;2023-02-20T14:31:34;100306.38;;;12.02;55.01
49102;BME280;34913;47.520;19.186;2023-02-20T14:34:08;100310.66;;;11.94;54.72
49102;BME280;34913;47.520;19.186;2023-02-20T14:36:55;100303.41;;;11.85;55.88
49102;BME280;34913;47.520;19.186;2023-02-20T14:42:02;100280.72;;;11.81;54.95
49102;BME280;34913;47.520;19.186;2023-02-20T14:44:29;100292.81;;;11.73;55.46
49102;BME280;34913;47.520;19.186;2023-02-20T14:47:08;100277.81;;;11.72;58.49
49102;BME280;34913;47.520;19.186;2023-02-20T14:49:36;100290.00;;;11.75;55.72
49102;BME280;34913;47.520;19.186;2023-02-20T14:52:12;100283.16;;;11.72;57.45
49102;BME280;34913;47.520;19.186;2023-02-20T14:54:41;100288.09;;;11.77;55.04
49102;BME280;34913;47.520;19.186;2023-02-20T14:57:11;100277.97;;;11.71;55.10
49102;BME280;34913;47.520;19.186;2023-02-20T14:59:37;100288.94;;;11.78;56.87
49102;BME280;34913;47.520;19.186;2023-02-20T15:02:34;100283.16;;;11.72;55.22
49102;BME280;34913;47.520;19.186;2023-02-20T15:05:05;100281.66;;;11.80;56.05
49102;BME280;34913;47.520;19.186;2023-02-20T15:07:32;100265.59;;;11.81;55.68
49102;BME280;34913;47.520;19.186;2023-02-20T15:10:02;100275.28;;;11.82;56.73
49102;BME280;34913;47.520;19.186;2023-02-20T15:12:38;100260.06;;;11.73;55.31
49102;BME280;34913;47.520;19.186;2023-02-20T15:17:40;100270.19;;;11.79;55.54
49102;BME280;34913;47.520;19.186;2023-02-20T15:25:38;100251.34;;;11.82;58.20
49102;BME280;34913;47.520;19.186;2023-02-20T15:28:30;100251.47;;;11.81;60.78
49102;BME280;34913;47.520;19.186;2023-02-20T15:33:31;100251.53;;;11.58;61.26
49102;BME280;34913;47.520;19.186;2023-02-20T15:35:58;100239.97;;;11.48;61.53
49102;BME280;34913;47.520;19.186;2023-02-20T15:38:28;100241.78;;;11.48;61.84
49102;BME280;34913;47.520;19.186;2023-02-20T15:40:56;100242.78;;;11.46;61.29
49102;BME280;34913;47.520;19.186;2023-02-20T15:43:22;100226.22;;;11.43;62.20
49102;BME280;34913;47.520;19.186;2023-02-20T15:45:48;100224.91;;;11.37;62.34
49102;BME280;34913;47.520;19.186;2023-02-20T15:48:14;100226.75;;;11.26;62.00
49102;BME280;34913;47.520;19.186;2023-02-20T15:50:40;100216.63;;;11.19;62.56